createdAt,value
2023-03-12T00:00:01.599Z,99519.50
2023-03-12T00:00:43.756Z,99483.28
2023-03-12T00:01:33.766Z,99519.38
2023-03-12T00:02:15.415Z,99521.84
2023-03-12T00:02:57.247Z,99508.41
2023-03-12T00:03:40.338Z,99499.38
2023-03-12T00:04:22.026Z,99515.00
2023-03-12T00:05:04.195Z,99515.22
2023-03-12T00:05:45.876Z,99512.50
2023-03-12T00:06:27.734Z,99510.84
2023-03-12T00:07:09.471Z,99513.34
2023-03-12T00:07:51.704Z,99508.41
2023-03-12T00:08:33.824Z,99509.78
2023-03-12T00:09:15.412Z,99491.59
2023-03-12T00:09:57.007Z,99500.81
2023-03-12T00:10:40.200Z,99504.47
2023-03-12T00:11:22.078Z,99518.44
2023-03-12T00:12:04.117Z,99510.84
2023-03-12T00:12:45.872Z,99517.03
2023-03-12T00:13:27.460Z,99511.94
2023-03-12T00:14:09.107Z,99517.16
2023-03-12T00:14:51.166Z,99514.66
2023-03-12T00:15:36.295Z,99505.66
2023-03-12T00:16:18.728Z,99493.34
2023-03-12T00:17:00.377Z,99515.72
2023-03-12T00:17:41.970Z,99498.44
2023-03-12T00:18:23.536Z,99512.16
2023-03-12T00:19:05.124Z,99517.59
2023-03-12T00:19:46.782Z,99509.28
2023-03-12T00:20:28.537Z,99506.22
2023-03-12T00:21:10.690Z,99505.75
2023-03-12T00:21:52.286Z,99454.78
2023-03-12T00:22:34.641Z,99503.53
2023-03-12T00:23:16.295Z,99483.28
2023-03-12T00:23:58.015Z,99500.09
2023-03-12T00:24:39.649Z,99510.00
2023-03-12T00:25:21.434Z,99511.91
2023-03-12T00:26:06.335Z,99503.25
2023-03-12T00:26:48.074Z,99489.91
2023-03-12T00:27:29.739Z,99504.69
2023-03-12T00:28:11.375Z,99487.44
2023-03-12T00:28:53.653Z,99507.19
2023-03-12T00:29:35.855Z,99488.03
2023-03-12T00:30:17.544Z,99467.91
2023-03-12T00:30:59.244Z,99500.94
2023-03-12T00:31:40.980Z,99498.22
2023-03-12T00:32:22.889Z,99423.97
2023-03-12T00:33:04.549Z,99489.69
2023-03-12T00:33:49.326Z,99509.78
2023-03-12T00:34:31.009Z,99507.91
2023-03-12T00:35:12.856Z,99515.59
2023-03-12T00:35:56.382Z,99508.25
2023-03-12T00:36:38.230Z,99495.84
2023-03-12T00:37:20.277Z,99490.16
2023-03-12T00:38:01.960Z,99349.59
2023-03-12T00:38:43.952Z,99489.94
2023-03-12T00:39:25.703Z,99477.53
2023-03-12T00:40:09.590Z,99497.03
2023-03-12T00:40:51.284Z,99500.44
2023-03-12T00:41:33.087Z,99499.63
2023-03-12T00:42:14.914Z,99493.13
2023-03-12T00:42:56.549Z,99464.63
2023-03-12T00:43:38.450Z,99497.72
2023-03-12T00:44:20.159Z,99488.88
2023-03-12T00:45:01.795Z,99500.34
2023-03-12T00:45:43.454Z,99504.72
2023-03-12T00:46:25.841Z,99504.72
2023-03-12T00:47:07.565Z,99498.69
2023-03-12T00:47:49.332Z,99469.59
2023-03-12T00:48:31.471Z,99514.16
2023-03-12T00:49:13.123Z,99497.03
2023-03-12T00:49:54.923Z,99495.34
2023-03-12T00:50:36.646Z,99494.31
2023-03-12T00:51:18.690Z,99486.28
2023-03-12T00:52:00.282Z,99497.13
2023-03-12T00:52:42.072Z,99493.03
2023-03-12T00:53:23.747Z,99501.75
2023-03-12T00:54:05.837Z,99492.63
2023-03-12T00:54:47.538Z,99498.44
2023-03-12T00:55:29.559Z,99465.47
2023-03-12T00:56:11.306Z,99507.31
2023-03-12T00:56:52.999Z,99481.28
2023-03-12T00:57:34.682Z,99498.66
2023-03-12T00:58:16.373Z,99406.44
2023-03-12T00:58:58.059Z,99495.97
2023-03-12T00:59:40.474Z,99495.84
2023-03-12T01:00:23.444Z,99489.69
2023-03-12T01:01:05.898Z,99487.22
2023-03-12T01:01:47.708Z,99497.84
2023-03-12T01:02:29.305Z,99480.34
2023-03-12T01:03:11.837Z,99488.16
2023-03-12T01:03:54.698Z,99463.31
2023-03-12T01:04:36.449Z,99461.75
2023-03-12T01:05:18.542Z,99495.22
2023-03-12T01:06:00.223Z,99492.75
2023-03-12T01:06:41.913Z,99448.50
2023-03-12T01:07:23.535Z,99486.81
2023-03-12T01:08:05.325Z,99497.59
2023-03-12T01:08:47.253Z,99490.97
2023-03-12T01:09:29.132Z,99488.56
2023-03-12T01:10:14.875Z,99474.03
2023-03-12T01:10:56.728Z,99499.81
2023-03-12T01:11:38.802Z,99489.88
2023-03-12T01:12:20.829Z,99504.56
2023-03-12T01:13:02.712Z,99502.44
2023-03-12T01:13:44.616Z,99500.66
2023-03-12T01:14:26.238Z,99488.84
2023-03-12T01:15:08.274Z,99503.25
2023-03-12T01:15:50.066Z,99464.34
2023-03-12T01:16:32.475Z,99504.69
2023-03-12T01:17:14.410Z,99477.25
2023-03-12T01:17:56.030Z,99503.66
2023-03-12T01:18:37.682Z,99425.84
2023-03-12T01:19:19.323Z,99408.47
2023-03-12T01:20:01.288Z,99503.88
2023-03-12T01:20:43.055Z,99477.97
2023-03-12T01:21:25.022Z,99491.09
2023-03-12T01:22:06.774Z,99490.16
2023-03-12T01:22:49.230Z,99483.91
2023-03-12T01:23:31.156Z,99474.91
2023-03-12T01:24:13.937Z,99480.00
2023-03-12T01:24:55.530Z,99487.09
2023-03-12T01:25:37.421Z,99500.22
2023-03-12T01:26:19.148Z,99482.84
2023-03-12T01:27:00.817Z,99473.09
2023-03-12T01:27:42.487Z,99506.34
2023-03-12T01:28:24.657Z,99495.72
2023-03-12T01:29:06.476Z,99489.81
2023-03-12T01:29:49.710Z,99466.97
2023-03-12T01:30:31.692Z,99495.84
2023-03-12T01:31:16.110Z,99490.03
2023-03-12T01:31:57.842Z,99498.91
2023-03-12T01:32:39.811Z,99480.47
2023-03-12T01:33:22.815Z,99504.25
2023-03-12T01:34:04.411Z,99466.84
2023-03-12T01:34:46.024Z,99502.34
2023-03-12T01:35:27.700Z,99432.00
2023-03-12T01:36:23.606Z,99489.94
2023-03-12T01:37:07.075Z,99508.63
2023-03-12T01:37:48.721Z,99475.75
2023-03-12T01:38:30.601Z,99514.88
2023-03-12T01:39:12.202Z,99510.41
2023-03-12T01:39:54.021Z,99479.06
2023-03-12T01:40:36.250Z,99478.34
2023-03-12T01:41:18.786Z,99511.34
2023-03-12T01:42:00.930Z,99495.97
2023-03-12T01:42:42.715Z,99510.41
2023-03-12T01:43:30.986Z,99499.75
2023-03-12T01:44:14.875Z,99512.38
2023-03-12T01:44:59.281Z,99517.59
2023-03-12T01:46:05.266Z,99511.31
2023-03-12T01:46:47.953Z,99511.69
2023-03-12T01:47:33.823Z,99506.97
2023-03-12T01:48:20.642Z,99507.31
2023-03-12T01:49:20.289Z,99505.78
2023-03-12T01:50:03.340Z,99484.84
2023-03-12T01:50:45.738Z,99488.28
2023-03-12T01:51:33.268Z,99469.13
2023-03-12T01:52:21.631Z,99438.16
2023-03-12T01:53:06.825Z,99487.81
2023-03-12T01:53:51.398Z,99501.03
2023-03-12T01:54:37.356Z,99495.97
2023-03-12T01:55:19.571Z,99502.09
2023-03-12T01:56:03.469Z,99498.81
2023-03-12T01:56:46.750Z,99484.28
2023-03-12T01:57:55.652Z,99500.09
2023-03-12T01:58:40.588Z,99494.69
2023-03-12T01:59:35.350Z,99482.47
2023-03-12T02:00:22.820Z,99501.88
2023-03-12T02:01:06.986Z,99505.53
2023-03-12T02:01:50.148Z,99486.50
2023-03-12T02:02:32.517Z,99468.78
2023-03-12T02:03:16.145Z,99493.03
2023-03-12T02:04:00.733Z,99478.69
2023-03-12T02:04:44.731Z,99490.88
2023-03-12T02:05:43.429Z,99469.00
2023-03-12T02:06:38.131Z,99497.00
2023-03-12T02:07:19.871Z,99491.81
2023-03-12T02:08:01.711Z,99461.81
2023-03-12T02:08:46.306Z,99460.97
2023-03-12T02:09:29.379Z,99460.88
2023-03-12T02:10:11.465Z,99490.16
2023-03-12T02:10:53.153Z,99449.03
2023-03-12T02:11:35.239Z,99457.19
2023-03-12T02:12:17.867Z,99456.00
2023-03-12T02:12:59.614Z,99491.25
2023-03-12T02:13:41.329Z,99469.34
2023-03-12T02:14:23.077Z,99487.91
2023-03-12T02:15:05.554Z,99483.31
2023-03-12T02:15:47.899Z,99489.22
2023-03-12T02:16:30.244Z,99479.50
2023-03-12T02:17:12.297Z,99471.84
2023-03-12T02:17:54.213Z,99465.81
2023-03-12T02:18:37.411Z,99482.00
2023-03-12T02:19:27.570Z,99473.63
2023-03-12T02:20:10.894Z,99471.47
2023-03-12T02:21:15.325Z,99469.13
2023-03-12T02:21:58.150Z,99469.38
2023-03-12T02:22:45.068Z,99428.69
2023-03-12T02:23:41.405Z,99442.06
2023-03-12T02:24:45.105Z,99473.25
2023-03-12T02:25:26.752Z,99473.97
2023-03-12T02:26:10.986Z,99473.84
2023-03-12T02:26:53.329Z,99467.94
2023-03-12T02:27:37.717Z,99475.25
2023-03-12T02:28:23.559Z,99471.59
2023-03-12T02:29:06.283Z,99463.66
2023-03-12T02:29:48.663Z,99473.00
2023-03-12T02:30:31.462Z,99469.47
2023-03-12T02:31:16.551Z,99478.09
2023-03-12T02:32:00.419Z,99461.16
2023-03-12T02:32:43.745Z,99428.94
2023-03-12T02:33:26.032Z,99403.88
2023-03-12T02:34:08.537Z,99444.16
2023-03-12T02:34:51.561Z,99470.97
2023-03-12T02:35:33.943Z,99474.16
2023-03-12T02:36:15.873Z,99465.66
2023-03-12T02:36:57.605Z,99471.69
2023-03-12T02:37:56.192Z,99460.47
2023-03-12T02:38:40.133Z,99458.09
2023-03-12T02:39:22.645Z,99471.56
2023-03-12T02:40:18.051Z,99449.50
2023-03-12T02:41:04.895Z,99469.47
2023-03-12T02:41:53.452Z,99471.72
2023-03-12T02:42:35.488Z,99437.44
2023-03-12T02:43:21.828Z,99476.41
2023-03-12T02:44:09.860Z,99467.44
2023-03-12T02:44:52.037Z,99457.50
2023-03-12T02:45:35.865Z,99463.72
2023-03-12T02:46:17.871Z,99467.41
2023-03-12T02:47:01.518Z,99472.50
2023-03-12T02:47:43.194Z,99435.28
2023-03-12T02:48:24.984Z,99350.94
2023-03-12T02:49:08.840Z,99455.13
2023-03-12T02:49:50.437Z,99473.56
2023-03-12T02:50:32.152Z,99460.44
2023-03-12T02:51:13.927Z,99471.53
2023-03-12T02:51:56.331Z,99473.06
2023-03-12T02:52:38.370Z,99468.09
2023-03-12T02:53:20.053Z,99383.84
2023-03-12T02:54:01.755Z,99465.59
2023-03-12T02:54:43.413Z,99457.91
2023-03-12T02:55:25.805Z,99384.06
2023-03-12T02:56:07.671Z,99464.97
2023-03-12T02:56:50.698Z,99467.31
2023-03-12T02:57:32.969Z,99462.81
2023-03-12T02:58:14.847Z,99397.75
2023-03-12T02:58:56.685Z,99468.50
2023-03-12T02:59:39.039Z,99470.56
2023-03-12T03:00:22.539Z,99457.69
2023-03-12T03:01:07.106Z,99468.34
2023-03-12T03:01:52.925Z,99470.47
2023-03-12T03:02:34.595Z,99424.03
2023-03-12T03:03:16.275Z,99457.97
2023-03-12T03:03:57.933Z,99460.56
2023-03-12T03:04:39.728Z,99430.44
2023-03-12T03:05:21.666Z,99449.31
2023-03-12T03:06:03.894Z,99464.09
2023-03-12T03:06:48.300Z,99454.63
2023-03-12T03:07:29.966Z,99447.53
2023-03-12T03:08:12.498Z,99458.97
2023-03-12T03:08:54.329Z,99449.97
2023-03-12T03:09:36.088Z,99437.69
2023-03-12T03:10:18.161Z,99459.44
2023-03-12T03:11:02.885Z,99454.59
2023-03-12T03:11:44.783Z,99452.09
2023-03-12T03:12:26.453Z,99451.66
2023-03-12T03:13:08.060Z,99443.13
2023-03-12T03:13:50.995Z,99472.84
2023-03-12T03:14:32.770Z,99461.00
2023-03-12T03:15:14.664Z,99454.41
2023-03-12T03:15:58.185Z,99462.47
2023-03-12T03:16:39.902Z,99440.94
2023-03-12T03:17:23.317Z,99460.09
2023-03-12T03:18:05.325Z,99451.34
2023-03-12T03:18:47.183Z,99427.84
2023-03-12T03:19:29.022Z,99434.00
2023-03-12T03:20:11.951Z,99445.31
2023-03-12T03:21:04.982Z,99454.44
2023-03-12T03:21:48.098Z,99451.84
2023-03-12T03:22:29.798Z,99452.19
2023-03-12T03:23:11.563Z,99450.41
2023-03-12T03:23:53.218Z,99458.44
2023-03-12T03:24:36.118Z,99440.13
2023-03-12T03:25:18.298Z,99441.28
2023-03-12T03:26:00.862Z,99429.59
2023-03-12T03:26:42.720Z,99459.81
2023-03-12T03:27:24.522Z,99433.81
2023-03-12T03:28:06.672Z,99456.13
2023-03-12T03:28:48.427Z,99461.09
2023-03-12T03:29:30.024Z,99464.41
2023-03-12T03:30:12.211Z,99458.38
2023-03-12T03:31:01.344Z,99462.03
2023-03-12T03:31:46.196Z,99463.56
2023-03-12T03:32:28.239Z,99448.66
2023-03-12T03:33:09.943Z,99437.34
2023-03-12T03:33:51.856Z,99449.84
2023-03-12T03:34:33.699Z,99457.84
2023-03-12T03:35:15.709Z,99453.13
2023-03-12T03:35:59.669Z,99453.56
2023-03-12T03:36:42.594Z,99459.34
2023-03-12T03:37:28.077Z,99445.75
2023-03-12T03:38:09.821Z,99467.94
2023-03-12T03:38:51.599Z,99461.66
2023-03-12T03:39:34.599Z,99450.78
2023-03-12T03:40:16.585Z,99460.13
2023-03-12T03:40:58.667Z,99450.22
2023-03-12T03:41:40.397Z,99402.50
2023-03-12T03:42:22.205Z,99431.81
2023-03-12T03:43:03.850Z,99453.31
2023-03-12T03:43:45.887Z,99446.38
2023-03-12T03:44:28.734Z,99423.47
2023-03-12T03:45:10.511Z,99453.66
2023-03-12T03:46:03.076Z,99459.47
2023-03-12T03:46:47.903Z,99450.22
2023-03-12T03:47:29.655Z,99452.44
2023-03-12T03:48:12.162Z,99419.94
2023-03-12T03:48:53.818Z,99457.72
2023-03-12T03:49:37.183Z,99457.34
2023-03-12T03:50:19.186Z,99436.78
2023-03-12T03:51:02.557Z,99459.69
2023-03-12T03:51:46.764Z,99454.28
2023-03-12T03:52:31.360Z,99442.72
2023-03-12T03:53:13.186Z,99454.84
2023-03-12T03:53:54.891Z,99459.13
2023-03-12T03:54:37.377Z,99452.44
2023-03-12T03:55:20.702Z,99447.81
2023-03-12T03:56:10.321Z,99434.13
2023-03-12T03:56:54.273Z,99452.88
2023-03-12T03:57:36.162Z,99430.69
2023-03-12T03:58:17.849Z,99416.13
2023-03-12T03:58:59.584Z,99364.81
2023-03-12T03:59:41.833Z,99452.25
2023-03-12T04:00:23.735Z,99452.81
2023-03-12T04:01:07.249Z,99439.38
2023-03-12T04:01:49.005Z,99445.84
2023-03-12T04:02:30.702Z,99440.75
2023-03-12T04:03:13.969Z,99454.41
2023-03-12T04:03:55.617Z,99445.75
2023-03-12T04:04:37.755Z,99422.50
2023-03-12T04:05:20.678Z,99451.03
2023-03-12T04:06:05.865Z,99450.78
2023-03-12T04:06:48.391Z,99454.78
2023-03-12T04:07:31.208Z,99449.56
2023-03-12T04:08:13.614Z,99452.44
2023-03-12T04:08:56.803Z,99467.13
2023-03-12T04:09:39.985Z,99425.84
2023-03-12T04:10:24.106Z,99449.66
2023-03-12T04:11:24.200Z,99457.59
2023-03-12T04:12:06.173Z,99450.69
2023-03-12T04:12:51.314Z,99457.78
2023-03-12T04:13:32.931Z,99456.63
2023-03-12T04:14:14.630Z,99459.63
2023-03-12T04:14:59.604Z,99464.41
2023-03-12T04:15:47.419Z,99455.19
2023-03-12T04:16:29.209Z,99458.41
2023-03-12T04:17:10.883Z,99423.81
2023-03-12T04:17:52.657Z,99457.16
2023-03-12T04:18:36.194Z,99466.47
2023-03-12T04:19:18.235Z,99464.84
2023-03-12T04:19:59.830Z,99374.31
2023-03-12T04:20:41.897Z,99462.09
2023-03-12T04:21:23.600Z,99464.31
2023-03-12T04:22:06.189Z,99468.47
2023-03-12T04:22:47.767Z,99368.66
2023-03-12T04:23:29.983Z,99459.88
2023-03-12T04:24:15.573Z,99464.16
2023-03-12T04:24:57.730Z,99457.97
2023-03-12T04:25:39.760Z,99442.28
2023-03-12T04:26:21.603Z,99467.69
2023-03-12T04:27:03.567Z,99454.78
2023-03-12T04:27:45.684Z,99460.84
2023-03-12T04:28:27.388Z,99436.03
2023-03-12T04:29:09.352Z,99412.53
2023-03-12T04:29:51.240Z,99416.97
2023-03-12T04:30:33.089Z,99450.63
2023-03-12T04:31:14.871Z,99445.72
2023-03-12T04:32:02.888Z,99435.97
2023-03-12T04:32:44.548Z,99431.19
2023-03-12T04:33:27.663Z,99395.88
2023-03-12T04:34:14.319Z,99429.63
2023-03-12T04:34:56.806Z,99428.69
2023-03-12T04:35:38.446Z,99432.97
2023-03-12T04:36:20.109Z,99420.13
2023-03-12T04:37:03.932Z,99431.94
2023-03-12T04:37:46.150Z,99432.34
2023-03-12T04:38:28.246Z,99435.44
2023-03-12T04:39:10.677Z,99430.31
2023-03-12T04:39:52.599Z,99435.53
2023-03-12T04:40:34.266Z,99423.66
2023-03-12T04:41:16.863Z,99438.78
2023-03-12T04:42:10.396Z,99427.53
2023-03-12T04:42:52.581Z,99430.00
2023-03-12T04:43:34.983Z,99433.16
2023-03-12T04:44:16.737Z,99427.00
2023-03-12T04:44:59.210Z,99435.56
2023-03-12T04:45:42.601Z,99408.63
2023-03-12T04:46:24.246Z,99431.81
2023-03-12T04:47:06.464Z,99427.16
2023-03-12T04:47:48.498Z,99437.78
2023-03-12T04:48:30.615Z,99426.78
2023-03-12T04:49:12.314Z,99430.50
2023-03-12T04:49:55.951Z,99407.13
2023-03-12T04:50:39.039Z,99439.91
2023-03-12T04:51:20.705Z,99443.47
2023-03-12T04:52:02.391Z,99438.00
2023-03-12T04:52:44.223Z,99416.97
2023-03-12T04:53:26.369Z,99436.66
2023-03-12T04:54:08.059Z,99441.22
2023-03-12T04:54:51.066Z,99437.06
2023-03-12T04:55:32.673Z,99433.13
2023-03-12T04:56:14.310Z,99436.13
2023-03-12T04:56:57.334Z,99376.81
2023-03-12T04:57:38.898Z,99444.28
2023-03-12T04:58:21.835Z,99444.16
2023-03-12T04:59:05.536Z,99449.09
2023-03-12T04:59:47.678Z,99434.22
2023-03-12T05:00:29.405Z,99457.63
2023-03-12T05:01:28.140Z,99450.59
2023-03-12T05:02:09.777Z,99452.25
2023-03-12T05:02:51.440Z,99448.69
2023-03-12T05:03:33.294Z,99457.22
2023-03-12T05:04:15.451Z,99451.06
2023-03-12T05:04:58.090Z,99452.41
2023-03-12T05:05:40.065Z,99384.41
2023-03-12T05:06:23.886Z,99450.34
2023-03-12T05:07:05.604Z,99447.44
2023-03-12T05:07:47.267Z,99442.75
2023-03-12T05:08:28.921Z,99421.97
2023-03-12T05:09:10.581Z,99443.44
2023-03-12T05:09:52.578Z,99441.19
2023-03-12T05:10:34.357Z,99428.34
2023-03-12T05:11:17.185Z,99443.47
2023-03-12T05:11:58.960Z,99443.06
2023-03-12T05:12:40.690Z,99451.13
2023-03-12T05:13:23.007Z,99436.53
2023-03-12T05:14:10.575Z,99405.13
2023-03-12T05:14:52.503Z,99443.81
2023-03-12T05:15:36.890Z,99448.78
2023-03-12T05:16:18.949Z,99446.88
2023-03-12T05:17:00.587Z,99378.44
2023-03-12T05:17:42.225Z,99451.38
2023-03-12T05:18:26.290Z,99448.06
2023-03-12T05:19:09.772Z,99437.78
2023-03-12T05:19:51.644Z,99444.94
2023-03-12T05:20:34.165Z,99369.03
2023-03-12T05:21:19.670Z,99444.34
2023-03-12T05:22:02.461Z,99443.66
2023-03-12T05:22:45.378Z,99447.22
2023-03-12T05:23:27.416Z,99415.41
2023-03-12T05:24:10.415Z,99435.00
2023-03-12T05:24:52.304Z,99423.81
2023-03-12T05:25:34.103Z,99437.78
2023-03-12T05:26:22.050Z,99443.31
2023-03-12T05:27:05.068Z,99440.16
2023-03-12T05:27:46.770Z,99450.66
2023-03-12T05:28:29.248Z,99408.03
2023-03-12T05:29:13.726Z,99434.06
2023-03-12T05:29:55.639Z,99362.94
2023-03-12T05:30:39.596Z,99436.97
2023-03-12T05:31:21.592Z,99435.88
2023-03-12T05:32:04.972Z,99404.81
2023-03-12T05:32:46.877Z,99430.94
2023-03-12T05:33:29.075Z,99431.50
2023-03-12T05:34:13.728Z,99429.97
2023-03-12T05:34:57.738Z,99433.72
2023-03-12T05:35:39.705Z,99421.63
2023-03-12T05:36:21.774Z,99437.69
2023-03-12T05:37:03.959Z,99415.53
2023-03-12T05:37:46.505Z,99393.78
2023-03-12T05:38:28.535Z,99423.19
2023-03-12T05:39:10.218Z,99436.69
2023-03-12T05:39:54.419Z,99436.00
2023-03-12T05:40:36.254Z,99440.50
2023-03-12T05:41:22.163Z,99443.38
2023-03-12T05:42:05.147Z,99440.75
2023-03-12T05:42:46.899Z,99395.06
2023-03-12T05:43:29.387Z,99431.16
2023-03-12T05:44:13.654Z,99440.38
2023-03-12T05:44:56.395Z,99393.50
2023-03-12T05:45:38.128Z,99429.81
2023-03-12T05:46:20.873Z,99424.59
2023-03-12T05:47:02.565Z,99421.03
2023-03-12T05:47:44.221Z,99361.31
2023-03-12T05:48:26.198Z,99434.78
2023-03-12T05:49:08.642Z,99429.44
2023-03-12T05:49:50.402Z,99402.75
2023-03-12T05:50:31.986Z,99426.28
2023-03-12T05:51:13.627Z,99430.44
2023-03-12T05:51:55.212Z,99396.28
2023-03-12T05:52:38.150Z,99421.06
2023-03-12T05:53:19.889Z,99436.09
2023-03-12T05:54:02.793Z,99431.25
2023-03-12T05:54:44.463Z,99432.72
2023-03-12T05:55:26.099Z,99433.41
2023-03-12T05:56:12.376Z,99427.19
2023-03-12T05:56:55.989Z,99419.47
2023-03-12T05:57:39.016Z,99435.13
2023-03-12T05:58:20.721Z,99418.47
2023-03-12T05:59:03.563Z,99418.47
2023-03-12T05:59:45.248Z,99427.31
2023-03-12T06:00:27.114Z,99416.75
2023-03-12T06:01:16.796Z,99423.78
2023-03-12T06:01:59.212Z,99430.78
2023-03-12T06:02:41.250Z,99432.69
2023-03-12T06:03:24.394Z,99415.59
2023-03-12T06:04:07.001Z,99428.97
2023-03-12T06:04:48.716Z,99428.03
2023-03-12T06:05:31.629Z,99434.94
2023-03-12T06:06:13.743Z,99398.75
2023-03-12T06:06:55.954Z,99408.69
2023-03-12T06:07:38.216Z,99428.06
2023-03-12T06:08:19.774Z,99345.97
2023-03-12T06:09:02.080Z,99424.38
2023-03-12T06:09:43.880Z,99366.34
2023-03-12T06:10:27.570Z,99410.47
2023-03-12T06:11:10.017Z,99399.72
2023-03-12T06:11:51.694Z,99418.81
2023-03-12T06:12:33.453Z,99351.66
2023-03-12T06:13:15.584Z,99416.75
2023-03-12T06:13:57.399Z,99416.44
2023-03-12T06:14:39.895Z,99348.06
2023-03-12T06:15:21.655Z,99424.16
2023-03-12T06:16:05.478Z,99424.16
2023-03-12T06:16:47.598Z,99421.97
2023-03-12T06:17:30.236Z,99405.28
2023-03-12T06:18:11.917Z,99416.44
2023-03-12T06:18:55.277Z,99426.47
2023-03-12T06:19:36.857Z,99397.56
2023-03-12T06:20:18.696Z,99397.81
2023-03-12T06:21:09.077Z,99425.09
2023-03-12T06:21:50.925Z,99424.59
2023-03-12T06:22:32.622Z,99388.69
2023-03-12T06:23:15.181Z,99363.25
2023-03-12T06:23:57.314Z,99417.75
2023-03-12T06:24:48.868Z,99417.75
2023-03-12T06:25:32.413Z,99389.72
2023-03-12T06:26:15.534Z,99413.50
2023-03-12T06:26:58.022Z,99424.63
2023-03-12T06:27:40.975Z,99395.31
2023-03-12T06:28:22.530Z,99428.50
2023-03-12T06:29:04.298Z,99421.63
2023-03-12T06:29:47.138Z,99408.69
2023-03-12T06:30:28.781Z,99393.28
2023-03-12T06:31:10.459Z,99421.31
2023-03-12T06:31:52.364Z,99361.63
2023-03-12T06:32:34.097Z,99327.13
2023-03-12T06:33:15.781Z,99317.97
2023-03-12T06:33:57.366Z,99383.00
2023-03-12T06:34:38.925Z,99399.28
2023-03-12T06:35:21.010Z,99424.84
2023-03-12T06:36:05.404Z,99420.31
2023-03-12T06:36:47.028Z,99423.59
2023-03-12T06:37:28.735Z,99423.47
2023-03-12T06:38:10.338Z,99415.22
2023-03-12T06:38:52.095Z,99411.50
2023-03-12T06:39:33.780Z,99338.63
2023-03-12T06:40:15.475Z,99416.47
2023-03-12T06:41:02.873Z,99406.13
2023-03-12T06:41:44.762Z,99431.00
2023-03-12T06:42:26.543Z,99432.13
2023-03-12T06:43:12.161Z,99416.03
2023-03-12T06:43:53.926Z,99414.78
2023-03-12T06:44:35.507Z,99424.84
2023-03-12T06:45:17.234Z,99429.22
2023-03-12T06:46:00.333Z,99412.72
2023-03-12T06:46:43.907Z,99418.06
2023-03-12T06:47:25.556Z,99404.06
2023-03-12T06:48:07.104Z,99422.78
2023-03-12T06:48:49.055Z,99405.72
2023-03-12T06:49:33.190Z,99388.91
2023-03-12T06:50:14.900Z,99318.66
2023-03-12T06:50:56.742Z,99420.16
2023-03-12T06:51:38.369Z,99360.31
2023-03-12T06:52:19.993Z,99347.28
2023-03-12T06:53:01.614Z,99341.78
2023-03-12T06:53:44.436Z,99403.50
2023-03-12T06:54:26.141Z,99411.34
2023-03-12T06:55:07.902Z,99419.34
2023-03-12T06:55:50.703Z,99403.38
2023-03-12T06:56:32.376Z,99376.94
2023-03-12T06:57:16.483Z,99407.50
2023-03-12T06:57:58.114Z,99398.28
2023-03-12T06:58:40.138Z,99411.19
2023-03-12T06:59:22.073Z,99377.63
2023-03-12T07:00:05.422Z,99410.75
2023-03-12T07:00:47.086Z,99401.50
2023-03-12T07:01:28.893Z,99413.66
2023-03-12T07:02:13.280Z,99407.44
2023-03-12T07:02:54.842Z,99418.72
2023-03-12T07:03:36.625Z,99394.25
2023-03-12T07:04:18.261Z,99403.03
2023-03-12T07:04:59.955Z,99392.84
2023-03-12T07:05:45.736Z,99419.66
2023-03-12T07:06:27.406Z,99376.78
2023-03-12T07:07:11.463Z,99423.94
2023-03-12T07:07:53.417Z,99418.19
2023-03-12T07:08:35.014Z,99400.56
2023-03-12T07:09:20.322Z,99414.44
2023-03-12T07:10:02.056Z,99427.13
2023-03-12T07:10:43.679Z,99437.31
2023-03-12T07:11:26.510Z,99436.09
2023-03-12T07:12:08.609Z,99436.50
2023-03-12T07:12:50.722Z,99427.72
2023-03-12T07:13:32.360Z,99421.38
2023-03-12T07:14:14.009Z,99412.34
2023-03-12T07:14:55.665Z,99402.69
2023-03-12T07:15:37.510Z,99431.88
2023-03-12T07:16:19.163Z,99367.06
2023-03-12T07:17:02.290Z,99430.47
2023-03-12T07:17:43.849Z,99435.88
2023-03-12T07:18:25.668Z,99432.69
2023-03-12T07:19:07.243Z,99437.38
2023-03-12T07:19:49.845Z,99438.03
2023-03-12T07:20:32.419Z,99440.00
2023-03-12T07:21:16.601Z,99440.41
2023-03-12T07:21:58.317Z,99412.06
2023-03-12T07:22:40.232Z,99445.63
2023-03-12T07:23:22.376Z,99448.78
2023-03-12T07:24:07.033Z,99414.66
2023-03-12T07:24:48.725Z,99448.78
2023-03-12T07:25:30.525Z,99432.81
2023-03-12T07:26:12.095Z,99453.03
2023-03-12T07:26:53.692Z,99428.69
2023-03-12T07:27:35.454Z,99451.94
2023-03-12T07:28:17.988Z,99443.03
2023-03-12T07:28:59.614Z,99441.06
2023-03-12T07:29:41.292Z,99398.19
2023-03-12T07:30:23.056Z,99448.78
2023-03-12T07:31:05.467Z,99448.66
2023-03-12T07:31:47.307Z,99447.94
2023-03-12T07:32:29.092Z,99420.16
2023-03-12T07:33:12.559Z,99426.34
2023-03-12T07:33:54.277Z,99390.56
2023-03-12T07:34:36.088Z,99442.31
2023-03-12T07:35:17.905Z,99407.13
2023-03-12T07:35:59.594Z,99432.13
2023-03-12T07:36:41.427Z,99429.94
2023-03-12T07:37:23.058Z,99421.94
2023-03-12T07:38:05.971Z,99438.72
2023-03-12T07:38:47.712Z,99437.38
2023-03-12T07:39:29.350Z,99431.03
2023-03-12T07:40:11.668Z,99437.25
2023-03-12T07:40:55.737Z,99437.78
2023-03-12T07:41:38.912Z,99399.56
2023-03-12T07:42:20.696Z,99436.53
2023-03-12T07:43:04.138Z,99443.56
2023-03-12T07:43:47.482Z,99433.09
2023-03-12T07:44:29.208Z,99430.06
2023-03-12T07:45:11.031Z,99422.22
2023-03-12T07:45:53.013Z,99410.94
2023-03-12T07:46:34.675Z,99433.53
2023-03-12T07:47:24.206Z,99434.75
2023-03-12T07:48:07.053Z,99433.94
2023-03-12T07:48:48.779Z,99363.13
2023-03-12T07:49:30.467Z,99407.38
2023-03-12T07:50:12.692Z,99437.09
2023-03-12T07:50:54.353Z,99432.53
2023-03-12T07:51:35.966Z,99411.09
2023-03-12T07:52:19.995Z,99430.06
2023-03-12T07:53:02.029Z,99432.38
2023-03-12T07:53:43.632Z,99438.44
2023-03-12T07:54:30.437Z,99416.72
2023-03-12T07:55:13.040Z,99399.13
2023-03-12T07:55:55.226Z,99412.75
2023-03-12T07:56:37.098Z,99439.53
2023-03-12T07:57:18.870Z,99420.16
2023-03-12T07:58:01.412Z,99425.38
2023-03-12T07:58:43.218Z,99441.19
2023-03-12T07:59:26.821Z,99425.91
2023-03-12T08:00:10.510Z,99397.72
2023-03-12T08:00:56.270Z,99444.75
2023-03-12T08:01:38.106Z,99438.53
2023-03-12T08:02:20.647Z,99441.72
2023-03-12T08:03:02.492Z,99430.97
2023-03-12T08:03:44.475Z,99438.91
2023-03-12T08:04:26.309Z,99375.09
2023-03-12T08:05:08.368Z,99387.69
2023-03-12T08:06:01.365Z,99433.41
2023-03-12T08:06:43.165Z,99413.28
2023-03-12T08:07:24.860Z,99405.44
2023-03-12T08:08:06.893Z,99418.75
2023-03-12T08:08:48.988Z,99417.38
2023-03-12T08:09:30.703Z,99423.91
2023-03-12T08:10:12.633Z,99420.19
2023-03-12T08:10:54.810Z,99421.72
2023-03-12T08:11:37.257Z,99400.03
2023-03-12T08:12:18.862Z,99395.09
2023-03-12T08:13:00.452Z,99423.69
2023-03-12T08:13:42.115Z,99419.03
2023-03-12T08:14:23.783Z,99397.88
2023-03-12T08:15:06.719Z,99416.56
2023-03-12T08:15:50.576Z,99427.28
2023-03-12T08:16:32.237Z,99394.84
2023-03-12T08:17:13.834Z,99432.50
2023-03-12T08:17:55.515Z,99391.53
2023-03-12T08:18:37.574Z,99423.41
2023-03-12T08:19:19.280Z,99403.84
2023-03-12T08:20:00.873Z,99427.47
2023-03-12T08:20:42.479Z,99338.84
2023-03-12T08:21:24.280Z,99426.31
2023-03-12T08:22:06.616Z,99424.53
2023-03-12T08:22:48.548Z,99421.28
2023-03-12T08:23:30.700Z,99420.34
2023-03-12T08:24:12.357Z,99413.75